createdAt,value
2017-12-14T00:02:18.608Z,3.60
2017-12-14T00:04:46.140Z,3.03
2017-12-14T00:07:13.670Z,3.20
2017-12-14T00:09:41.116Z,3.60
2017-12-14T00:12:18.936Z,4.10
2017-12-14T00:14:46.373Z,3.97
2017-12-14T00:17:13.913Z,4.30
2017-12-14T00:19:41.512Z,3.00
2017-12-14T00:22:09.032Z,3.87
2017-12-14T00:24:35.986Z,4.53
2017-12-14T00:27:04.173Z,3.80
2017-12-14T00:29:31.652Z,5.03
2017-12-14T00:31:59.298Z,3.63
2017-12-14T00:34:26.794Z,3.77
2017-12-14T00:36:54.245Z,3.20
2017-12-14T00:39:21.753Z,4.67
2017-12-14T00:41:49.185Z,3.77
2017-12-14T00:44:16.634Z,3.60
2017-12-14T00:46:44.977Z,4.23
2017-12-14T00:49:12.457Z,3.93
2017-12-14T00:51:39.964Z,4.90
2017-12-14T00:54:07.488Z,3.80
2017-12-14T00:56:35.050Z,4.97
2017-12-14T00:59:02.752Z,3.97
2017-12-14T01:01:30.409Z,5.60
2017-12-14T01:03:57.853Z,4.10
2017-12-14T01:06:25.618Z,4.50
2017-12-14T01:08:53.084Z,4.87
2017-12-14T01:11:20.603Z,4.37
2017-12-14T01:13:48.161Z,3.27
2017-12-14T01:16:15.606Z,3.37
2017-12-14T01:18:43.070Z,4.00
2017-12-14T01:21:10.520Z,3.47
2017-12-14T01:23:37.988Z,4.80
2017-12-14T01:26:05.520Z,5.07
2017-12-14T01:28:33.091Z,4.27
2017-12-14T01:31:00.537Z,5.40
2017-12-14T01:33:28.030Z,4.20
2017-12-14T01:35:55.505Z,5.93
2017-12-14T01:38:22.968Z,7.93
2017-12-14T01:40:50.708Z,5.57
2017-12-14T01:43:18.167Z,6.57
2017-12-14T01:45:45.697Z,6.10
2017-12-14T01:48:13.190Z,8.57
2017-12-14T01:50:40.637Z,5.97
2017-12-14T01:53:08.100Z,6.77
2017-12-14T01:55:35.568Z,7.27
2017-12-14T01:58:03.036Z,5.60
2017-12-14T02:00:30.507Z,6.87
2017-12-14T02:02:57.970Z,7.57
2017-12-14T02:05:25.463Z,7.17
2017-12-14T02:07:52.919Z,6.57
2017-12-14T02:10:20.429Z,6.43
2017-12-14T02:12:47.883Z,6.43
2017-12-14T02:15:15.442Z,7.60
2017-12-14T02:17:42.894Z,5.63
2017-12-14T02:20:10.342Z,4.73
2017-12-14T02:22:37.958Z,2.87
2017-12-14T02:25:05.423Z,2.40
2017-12-14T02:27:32.889Z,4.50
2017-12-14T02:30:00.447Z,3.03
2017-12-14T02:32:27.895Z,2.30
2017-12-14T02:34:55.343Z,2.00
2017-12-14T02:37:22.899Z,1.73
2017-12-14T02:39:50.361Z,1.67
2017-12-14T02:42:17.822Z,1.30
2017-12-14T02:44:45.263Z,0.93
2017-12-14T02:47:12.782Z,1.47
2017-12-14T02:49:40.324Z,0.87
2017-12-14T02:52:07.787Z,1.70
2017-12-14T02:54:35.285Z,1.77
2017-12-14T02:57:03.049Z,3.03
2017-12-14T02:59:30.524Z,2.70
2017-12-14T03:01:57.965Z,4.17
2017-12-14T03:04:25.418Z,4.43
2017-12-14T03:06:52.888Z,3.73
2017-12-14T03:09:20.414Z,3.63
2017-12-14T03:11:47.853Z,3.10
2017-12-14T03:14:15.327Z,3.10
2017-12-14T03:16:42.779Z,3.80
2017-12-14T03:19:10.228Z,2.53
2017-12-14T03:21:37.689Z,4.97
2017-12-14T03:24:05.237Z,1.60
2017-12-14T03:26:35.525Z,1.30
2017-12-14T03:29:02.969Z,1.30
2017-12-14T03:31:30.421Z,1.50
2017-12-14T03:33:57.872Z,1.10
2017-12-14T03:36:25.333Z,0.53
2017-12-14T03:38:52.826Z,0.50
2017-12-14T03:41:20.320Z,0.50
2017-12-14T03:43:47.765Z,0.50
2017-12-14T03:46:15.224Z,0.13
2017-12-14T03:48:42.690Z,0.27
2017-12-14T03:51:10.142Z,0.30
2017-12-14T03:53:37.610Z,0.10
2017-12-14T03:56:05.112Z,0.30
2017-12-14T03:58:32.638Z,1.27
2017-12-14T04:01:00.155Z,0.30
2017-12-14T04:03:27.625Z,0.40
2017-12-14T04:05:55.067Z,0.37
2017-12-14T04:08:22.526Z,0.40
2017-12-14T04:10:49.995Z,0.50
2017-12-14T04:13:17.618Z,0.60
2017-12-14T04:15:45.057Z,0.40
2017-12-14T04:18:12.511Z,0.50
2017-12-14T04:20:40.031Z,0.60
2017-12-14T04:23:07.469Z,0.73
2017-12-14T04:25:34.922Z,1.27
2017-12-14T04:28:02.374Z,0.30
2017-12-14T04:30:29.832Z,1.13
2017-12-14T04:32:57.288Z,1.00
2017-12-14T04:35:24.856Z,0.50
2017-12-14T04:37:52.306Z,0.63
2017-12-14T04:40:19.796Z,0.50
2017-12-14T04:42:47.256Z,1.50
2017-12-14T04:45:14.701Z,0.60
2017-12-14T04:47:42.158Z,1.17
2017-12-14T04:50:09.693Z,0.80
2017-12-14T04:52:37.303Z,1.17
2017-12-14T04:55:04.746Z,2.00
2017-12-14T04:57:32.205Z,0.67
2017-12-14T04:59:59.657Z,1.40
2017-12-14T05:02:27.127Z,0.87
2017-12-14T05:04:54.655Z,0.43
2017-12-14T05:07:22.190Z,0.80
2017-12-14T05:09:49.628Z,0.83
2017-12-14T05:12:17.111Z,0.97
2017-12-14T05:14:44.571Z,0.93
2017-12-14T05:17:12.010Z,1.30
2017-12-14T05:19:39.539Z,1.23
2017-12-14T05:22:06.996Z,1.90
2017-12-14T05:24:34.579Z,1.67
2017-12-14T05:27:02.038Z,2.13
2017-12-14T05:29:29.505Z,1.30
2017-12-14T05:31:56.989Z,0.93
2017-12-14T05:34:24.445Z,2.73
2017-12-14T05:36:52.754Z,2.37
2017-12-14T05:39:20.242Z,1.70
2017-12-14T05:41:47.713Z,1.03
2017-12-14T05:44:15.253Z,2.13
2017-12-14T05:46:42.697Z,3.77
2017-12-14T05:49:10.150Z,1.87
2017-12-14T05:51:37.622Z,1.77
2017-12-14T05:54:05.066Z,3.77
2017-12-14T05:56:32.600Z,2.50
2017-12-14T05:59:00.105Z,4.80
2017-12-14T06:01:27.561Z,1.10
2017-12-14T06:03:55.002Z,2.03
2017-12-14T06:06:22.508Z,2.83
2017-12-14T06:08:50.061Z,2.97
2017-12-14T06:11:17.537Z,2.93
2017-12-14T06:13:45.012Z,3.70
2017-12-14T06:16:12.490Z,3.23
2017-12-14T06:18:40.045Z,2.53
2017-12-14T06:21:07.555Z,2.40
2017-12-14T06:23:35.012Z,1.70
2017-12-14T06:26:02.458Z,2.13
2017-12-14T06:28:29.929Z,2.43
2017-12-14T06:30:57.404Z,1.53
2017-12-14T06:33:24.973Z,2.00
2017-12-14T06:35:52.443Z,1.77
2017-12-14T06:38:19.928Z,6.53
2017-12-14T06:40:47.437Z,2.77
2017-12-14T06:43:14.889Z,2.20
2017-12-14T06:45:42.347Z,1.67
2017-12-14T06:48:09.900Z,3.10
2017-12-14T06:50:37.362Z,3.33
2017-12-14T06:53:04.846Z,2.07
2017-12-14T06:55:32.302Z,2.40
2017-12-14T06:57:59.749Z,3.37
2017-12-14T07:00:27.317Z,2.20
2017-12-14T07:05:56.504Z,2.00
2017-12-14T07:08:23.949Z,1.73
2017-12-14T07:10:51.480Z,2.77
2017-12-14T07:13:18.931Z,3.07
2017-12-14T07:15:46.380Z,1.90
2017-12-14T07:18:13.844Z,3.17
2017-12-14T07:20:41.285Z,2.17
2017-12-14T07:23:08.747Z,3.40
2017-12-14T07:25:36.219Z,1.60
2017-12-14T07:28:03.696Z,3.20
2017-12-14T07:30:32.807Z,3.10
2017-12-14T07:33:00.323Z,4.07
2017-12-14T07:35:27.771Z,2.30
2017-12-14T07:37:55.220Z,2.87
2017-12-14T07:40:22.686Z,1.70
2017-12-14T07:46:07.485Z,1.70
2017-12-14T07:48:34.949Z,1.20
2017-12-14T07:51:02.445Z,1.40
2017-12-14T07:53:29.889Z,1.50
2017-12-14T07:55:57.430Z,1.80
2017-12-14T07:58:24.906Z,2.47
2017-12-14T08:00:52.370Z,1.53
2017-12-14T08:03:19.822Z,1.10
2017-12-14T08:05:47.287Z,2.70
2017-12-14T08:08:14.737Z,2.87
2017-12-14T08:10:42.269Z,1.00
2017-12-14T08:13:09.731Z,1.47
2017-12-14T08:15:37.289Z,2.57
2017-12-14T08:18:04.729Z,1.33
2017-12-14T08:20:32.180Z,3.40
2017-12-14T08:22:59.651Z,4.63
2017-12-14T08:25:27.098Z,2.43
2017-12-14T08:27:54.595Z,2.03
2017-12-14T08:30:22.042Z,0.93
2017-12-14T08:32:49.498Z,7.87
2017-12-14T08:35:17.053Z,12.67
2017-12-14T08:37:44.509Z,4.07
2017-12-14T08:40:12.007Z,4.80
2017-12-14T08:42:39.565Z,5.50
2017-12-14T08:45:07.015Z,3.53
2017-12-14T08:47:34.513Z,3.30
2017-12-14T08:50:01.967Z,5.30
2017-12-14T08:52:29.417Z,7.53
2017-12-14T08:54:56.890Z,6.87
2017-12-14T08:57:24.343Z,1.97
2017-12-14T08:59:51.869Z,1.37
2017-12-14T09:02:19.439Z,2.23
2017-12-14T09:04:46.911Z,1.50
2017-12-14T09:07:14.359Z,0.97
2017-12-14T09:09:41.801Z,2.10
2017-12-14T09:12:09.243Z,3.40
2017-12-14T09:14:36.714Z,1.10
2017-12-14T09:17:04.156Z,2.00
2017-12-14T09:19:31.680Z,0.40
2017-12-14T09:21:59.143Z,0.93
2017-12-14T09:24:26.664Z,1.87
2017-12-14T09:26:54.121Z,1.37
2017-12-14T09:29:21.581Z,1.10
2017-12-14T09:31:49.051Z,0.80
2017-12-14T09:34:16.577Z,0.80
2017-12-14T09:36:44.040Z,1.97
2017-12-14T09:39:11.486Z,0.90
2017-12-14T09:41:39.040Z,0.60
2017-12-14T09:44:06.483Z,0.67
2017-12-14T09:46:33.933Z,0.80
2017-12-14T09:49:01.375Z,0.83
2017-12-14T09:51:28.845Z,1.33
2017-12-14T09:53:56.292Z,0.77
2017-12-14T09:56:23.773Z,2.23
2017-12-14T09:58:51.221Z,0.77
2017-12-14T10:01:18.727Z,0.70
2017-12-14T10:03:46.336Z,1.40
2017-12-14T10:06:13.774Z,2.43
2017-12-14T10:08:41.231Z,1.13
2017-12-14T10:11:08.701Z,1.33
2017-12-14T10:13:36.161Z,0.37
2017-12-14T10:16:03.618Z,0.53
2017-12-14T10:18:31.130Z,0.60
2017-12-14T10:20:58.560Z,0.43
2017-12-14T10:23:26.018Z,2.50
2017-12-14T10:25:53.539Z,1.53
2017-12-14T10:28:21.069Z,1.00
2017-12-14T10:30:48.687Z,1.00
2017-12-14T10:33:16.152Z,2.57
2017-12-14T10:35:43.621Z,0.77
2017-12-14T10:38:11.140Z,0.80
2017-12-14T10:40:38.584Z,1.37
2017-12-14T10:43:06.137Z,0.73
2017-12-14T10:45:33.603Z,0.87
2017-12-14T10:48:01.050Z,2.87
2017-12-14T10:50:28.541Z,1.97
2017-12-14T10:52:56.011Z,2.07
2017-12-14T10:55:23.499Z,5.27
2017-12-14T10:57:50.954Z,2.43
2017-12-14T11:00:18.419Z,2.20
2017-12-14T11:02:45.859Z,1.30
2017-12-14T11:05:13.375Z,6.00
2017-12-14T11:07:40.821Z,3.67
2017-12-14T11:10:08.265Z,5.20
2017-12-14T11:12:35.775Z,4.13
2017-12-14T11:15:03.219Z,2.40
2017-12-14T11:17:30.673Z,2.70
2017-12-14T11:19:58.120Z,4.83
2017-12-14T11:22:25.583Z,4.10
2017-12-14T11:24:53.137Z,3.53
2017-12-14T11:27:20.622Z,2.87
2017-12-14T11:29:48.093Z,2.73
2017-12-14T11:32:15.568Z,3.07
2017-12-14T11:34:43.104Z,3.83
2017-12-14T11:37:10.545Z,7.70
2017-12-14T11:39:38.062Z,2.93
2017-12-14T11:42:05.465Z,2.03
2017-12-14T11:44:33.027Z,4.67
2017-12-14T11:47:00.570Z,1.70
2017-12-14T11:49:28.022Z,5.67
2017-12-14T11:51:55.511Z,2.83
2017-12-14T11:54:22.974Z,2.80
2017-12-14T11:56:50.425Z,5.07
2017-12-14T11:59:18.232Z,5.27
2017-12-14T12:01:45.703Z,2.33
2017-12-14T12:04:13.145Z,5.80
2017-12-14T12:06:40.670Z,2.40
2017-12-14T12:09:08.104Z,2.40
2017-12-14T12:11:35.570Z,4.43
2017-12-14T12:14:03.012Z,3.73
2017-12-14T12:16:30.468Z,6.53
2017-12-14T12:18:57.920Z,5.37
2017-12-14T12:21:25.390Z,4.40
2017-12-14T12:23:52.845Z,2.57
2017-12-14T12:26:20.414Z,2.13
2017-12-14T12:28:47.859Z,6.60
2017-12-14T12:31:15.312Z,5.63
2017-12-14T12:33:42.763Z,5.83
2017-12-14T12:36:10.209Z,3.93
2017-12-14T12:38:37.662Z,4.57
2017-12-14T12:41:05.148Z,3.77
2017-12-14T12:43:32.606Z,6.70
2017-12-14T12:46:00.069Z,2.67
2017-12-14T12:48:27.566Z,3.67
2017-12-14T12:50:55.116Z,3.93
2017-12-14T12:53:22.575Z,2.43
2017-12-14T12:55:50.699Z,6.27
2017-12-14T12:58:18.151Z,1.90
2017-12-14T13:00:45.706Z,3.13
2017-12-14T13:03:13.174Z,4.90
2017-12-14T13:05:40.653Z,4.93
2017-12-14T13:08:08.111Z,2.03
2017-12-14T13:10:35.557Z,1.90
2017-12-14T13:13:03.013Z,7.23
2017-12-14T13:15:30.474Z,4.70
2017-12-14T13:17:57.926Z,4.13
2017-12-14T13:20:25.527Z,5.53
2017-12-14T13:22:52.990Z,11.07
2017-12-14T13:25:20.453Z,2.63
2017-12-14T13:27:47.904Z,4.80
2017-12-14T13:30:15.354Z,2.07
2017-12-14T13:32:42.821Z,6.03
2017-12-14T13:35:10.269Z,4.53
2017-12-14T13:37:37.766Z,1.97
2017-12-14T13:40:05.269Z,1.90
2017-12-14T13:42:32.696Z,6.03
2017-12-14T13:45:00.145Z,2.63
2017-12-14T13:47:27.606Z,4.40
2017-12-14T13:49:55.122Z,7.70
2017-12-14T13:52:23.002Z,6.70
2017-12-14T13:54:50.524Z,3.50
2017-12-14T13:57:17.977Z,5.73
2017-12-14T13:59:45.421Z,2.73
2017-12-14T14:02:13.089Z,4.47
2017-12-14T14:04:40.646Z,4.00
2017-12-14T14:07:08.091Z,6.60
2017-12-14T14:09:35.573Z,7.70
2017-12-14T14:12:03.013Z,4.43
2017-12-14T14:14:30.460Z,4.27
2017-12-14T14:16:57.919Z,6.40
2017-12-14T14:19:25.477Z,3.40
2017-12-14T14:21:52.954Z,2.90
2017-12-14T14:24:20.536Z,6.87
2017-12-14T14:26:47.974Z,6.37
2017-12-14T14:29:15.441Z,6.63
2017-12-14T14:31:42.889Z,11.03
2017-12-14T14:34:10.402Z,1.50
2017-12-14T14:36:37.880Z,4.83
2017-12-14T14:39:05.326Z,4.50
2017-12-14T14:41:32.864Z,3.87
2017-12-14T14:44:00.384Z,8.83
2017-12-14T14:46:27.857Z,5.57
2017-12-14T14:48:55.338Z,8.47
2017-12-14T14:51:22.906Z,6.20
2017-12-14T14:53:50.381Z,4.90
2017-12-14T14:56:17.974Z,6.30
2017-12-14T14:58:45.386Z,6.47
2017-12-14T15:01:12.878Z,7.77
2017-12-14T15:03:40.357Z,4.20
2017-12-14T15:06:07.813Z,4.53
2017-12-14T15:08:35.339Z,2.70
2017-12-14T15:11:02.807Z,5.60
2017-12-14T15:13:30.248Z,8.23
2017-12-14T15:15:57.715Z,4.70
2017-12-14T15:18:25.160Z,4.07
2017-12-14T15:20:52.653Z,9.93
2017-12-14T15:23:20.167Z,8.00
2017-12-14T15:25:47.631Z,7.53
2017-12-14T15:28:15.390Z,6.20
2017-12-14T15:30:42.828Z,6.13
2017-12-14T15:33:10.282Z,3.97
2017-12-14T15:35:37.725Z,6.37
2017-12-14T15:38:05.176Z,5.57
2017-12-14T15:40:32.618Z,4.47
2017-12-14T15:43:00.136Z,11.30
2017-12-14T15:45:27.579Z,9.43
2017-12-14T15:50:22.594Z,4.70
2017-12-14T15:52:50.824Z,6.43
2017-12-14T15:55:18.295Z,13.00
2017-12-14T15:57:45.825Z,4.57
2017-12-14T16:00:13.297Z,5.97
2017-12-14T16:02:40.769Z,10.97
2017-12-14T16:05:08.251Z,7.50
2017-12-14T16:07:35.709Z,5.30
2017-12-14T16:10:03.165Z,6.30
2017-12-14T16:12:30.615Z,6.77
2017-12-14T16:14:58.079Z,5.50
2017-12-14T16:17:25.525Z,5.00
2017-12-14T16:19:52.989Z,8.20
2017-12-14T16:22:20.550Z,9.47
2017-12-14T16:24:47.993Z,7.27
2017-12-14T16:27:15.484Z,5.70
2017-12-14T16:29:43.122Z,6.67
2017-12-14T16:32:10.578Z,6.17
2017-12-14T16:34:38.026Z,7.90
2017-12-14T16:37:05.474Z,4.47
2017-12-14T16:39:32.930Z,5.13
2017-12-14T16:42:00.423Z,8.47
2017-12-14T16:44:27.882Z,7.23
2017-12-14T16:46:55.337Z,6.03
2017-12-14T16:49:22.806Z,6.83
2017-12-14T16:51:50.316Z,5.50
2017-12-14T16:54:17.863Z,7.10
2017-12-14T16:56:45.322Z,6.53
2017-12-14T16:59:12.834Z,6.43
2017-12-14T17:01:40.317Z,8.37
2017-12-14T17:04:07.907Z,7.77
2017-12-14T17:06:35.348Z,5.27
2017-12-14T17:09:02.845Z,3.83
2017-12-14T17:11:30.304Z,5.70
2017-12-14T17:13:57.853Z,10.27
2017-12-14T17:16:25.393Z,12.17
2017-12-14T17:18:52.860Z,7.13
2017-12-14T17:21:20.337Z,7.13
2017-12-14T17:23:47.819Z,6.53
2017-12-14T17:26:15.296Z,7.67
2017-12-14T17:28:42.741Z,8.80
2017-12-14T17:31:10.190Z,3.23
2017-12-14T17:33:37.638Z,6.50
2017-12-14T17:36:05.172Z,5.33
2017-12-14T17:38:32.643Z,5.50
2017-12-14T17:41:00.092Z,7.00
2017-12-14T17:43:27.559Z,6.23
2017-12-14T17:45:55.010Z,4.47
2017-12-14T17:48:22.536Z,9.73
2017-12-14T17:50:50.068Z,7.97
2017-12-14T17:53:17.519Z,14.57
2017-12-14T17:55:44.958Z,6.73
2017-12-14T17:58:12.413Z,10.17
2017-12-14T18:00:39.875Z,5.40
2017-12-14T18:03:07.354Z,5.57
2017-12-14T18:05:34.818Z,3.93
2017-12-14T18:08:02.327Z,8.80
2017-12-14T18:10:29.774Z,6.17
2017-12-14T18:12:57.334Z,10.50
2017-12-14T18:15:24.913Z,9.10
2017-12-14T18:17:52.381Z,7.20
2017-12-14T18:20:19.856Z,6.60
2017-12-14T18:22:47.317Z,6.13
2017-12-14T18:25:14.774Z,5.57
2017-12-14T18:27:42.278Z,8.43
2017-12-14T18:30:09.741Z,6.90
2017-12-14T18:32:37.189Z,7.13
2017-12-14T18:35:04.673Z,8.47
2017-12-14T18:37:32.269Z,6.20
2017-12-14T18:39:59.743Z,9.10
2017-12-14T18:42:27.238Z,7.43
2017-12-14T18:44:54.706Z,6.47
2017-12-14T18:47:22.250Z,6.87
2017-12-14T18:49:49.713Z,7.43
2017-12-14T18:52:17.158Z,8.07
2017-12-14T18:54:44.644Z,7.50
2017-12-14T18:57:12.221Z,10.43
2017-12-14T18:59:39.664Z,11.37
2017-12-14T19:02:07.150Z,8.53
2017-12-14T19:04:34.766Z,11.37
2017-12-14T19:07:02.298Z,5.93
2017-12-14T19:09:29.771Z,11.73
2017-12-14T19:11:57.249Z,7.20
2017-12-14T19:14:24.701Z,5.83
2017-12-14T19:16:52.180Z,3.37
2017-12-14T19:19:19.682Z,9.47
2017-12-14T19:21:47.154Z,11.77
2017-12-14T19:24:14.605Z,9.03
2017-12-14T19:26:42.079Z,9.30
2017-12-14T19:29:09.518Z,6.57
2017-12-14T19:31:36.997Z,12.67
2017-12-14T19:34:04.462Z,10.70
2017-12-14T19:36:31.999Z,7.80
2017-12-14T19:38:59.573Z,6.37
2017-12-14T19:41:27.087Z,10.43
2017-12-14T19:43:54.565Z,9.87
2017-12-14T19:46:22.029Z,9.23
2017-12-14T19:48:49.556Z,5.90
2017-12-14T19:51:17.011Z,9.43
2017-12-14T19:53:44.453Z,6.53
2017-12-14T19:56:12.003Z,6.23
2017-12-14T19:58:39.470Z,9.63
2017-12-14T20:01:06.959Z,4.60
2017-12-14T20:03:34.411Z,5.23
2017-12-14T20:06:01.901Z,10.30
2017-12-14T20:08:29.378Z,3.97
2017-12-14T20:10:56.916Z,8.13
2017-12-14T20:13:24.453Z,3.80
2017-12-14T20:15:51.965Z,4.73
2017-12-14T20:18:19.471Z,7.10
2017-12-14T20:20:46.946Z,3.67
2017-12-14T20:23:14.497Z,2.20
2017-12-14T20:25:42.040Z,3.83
2017-12-14T20:28:09.608Z,2.13
2017-12-14T20:30:37.062Z,3.90
2017-12-14T20:33:04.595Z,3.67
2017-12-14T20:35:32.052Z,3.17
2017-12-14T20:37:59.520Z,2.23
2017-12-14T20:40:27.000Z,2.90
2017-12-14T20:42:54.554Z,1.33
2017-12-14T20:45:22.066Z,1.60
2017-12-14T20:47:49.530Z,3.13
2017-12-14T20:50:16.974Z,1.63
2017-12-14T20:52:44.467Z,1.40
2017-12-14T20:55:12.127Z,1.60
2017-12-14T20:57:39.576Z,1.97
2017-12-14T21:00:07.083Z,1.30
2017-12-14T21:02:34.588Z,1.43
2017-12-14T21:05:02.046Z,0.90
2017-12-14T21:07:29.633Z,2.77
2017-12-14T21:09:57.146Z,1.00
2017-12-14T21:12:24.634Z,2.30
2017-12-14T21:14:52.147Z,1.93
2017-12-14T21:17:19.733Z,1.57
2017-12-14T21:19:47.257Z,1.97
2017-12-14T21:22:14.773Z,2.10
2017-12-14T21:24:42.280Z,3.43
2017-12-14T21:27:09.765Z,3.27
2017-12-14T21:29:37.332Z,1.77
2017-12-14T21:32:04.830Z,2.13
2017-12-14T21:34:32.373Z,2.57
2017-12-14T21:36:59.849Z,4.47
2017-12-14T21:39:27.464Z,3.63
2017-12-14T21:41:55.032Z,2.53
2017-12-14T21:44:22.483Z,3.57
2017-12-14T21:46:50.041Z,2.37
2017-12-14T21:49:17.485Z,4.17
2017-12-14T21:51:44.953Z,2.20
2017-12-14T21:54:12.394Z,3.33
2017-12-14T21:56:39.853Z,2.27
2017-12-14T21:59:07.387Z,5.60
2017-12-14T22:01:34.980Z,3.50
2017-12-14T22:04:02.472Z,4.73
2017-12-14T22:06:29.920Z,3.73
2017-12-14T22:08:57.427Z,6.40
2017-12-14T22:11:24.927Z,3.50
2017-12-14T22:13:53.339Z,3.97
2017-12-14T22:16:21.851Z,4.97
2017-12-14T22:18:49.970Z,3.00
2017-12-14T22:21:17.991Z,4.43
2017-12-14T22:23:45.496Z,3.67
2017-12-14T22:26:13.088Z,4.90
2017-12-14T22:28:40.610Z,3.80
2017-12-14T22:31:08.116Z,5.07
2017-12-14T22:33:35.728Z,3.83
2017-12-14T22:36:03.288Z,3.47
2017-12-14T22:38:30.855Z,3.50
2017-12-14T22:40:58.352Z,4.93
2017-12-14T22:43:25.860Z,3.17
2017-12-14T22:45:53.404Z,4.07
2017-12-14T22:48:20.852Z,4.23
2017-12-14T22:50:48.301Z,8.80
2017-12-14T22:53:15.753Z,7.57
2017-12-14T22:55:43.209Z,6.57
2017-12-14T22:58:10.695Z,8.67
2017-12-14T23:00:38.252Z,5.97
2017-12-14T23:03:05.699Z,5.30
2017-12-14T23:05:33.193Z,7.30
2017-12-14T23:08:00.681Z,4.73
2017-12-14T23:10:28.149Z,7.50
2017-12-14T23:12:55.606Z,5.43
2017-12-14T23:15:23.099Z,9.40
2017-12-14T23:17:50.683Z,7.30
2017-12-14T23:20:18.127Z,5.87
2017-12-14T23:22:45.579Z,6.37
2017-12-14T23:25:13.026Z,7.40
2017-12-14T23:27:40.491Z,4.97
2017-12-14T23:30:07.961Z,6.17
2017-12-14T23:32:35.414Z,5.77
2017-12-14T23:35:02.858Z,6.30
2017-12-14T23:37:30.314Z,7.37
2017-12-14T23:39:57.777Z,10.17
2017-12-14T23:42:25.219Z,8.10
2017-12-14T23:44:52.682Z,5.17
2017-12-14T23:47:20.194Z,6.63
2017-12-14T23:49:47.669Z,4.73
2017-12-14T23:52:15.118Z,5.83
2017-12-14T23:54:42.582Z,12.20
2017-12-14T23:57:10.029Z,5.87
2017-12-14T23:59:37.551Z,4.17
